sensor_id;sensor_type;location;lat;lon;timestamp;P1;durP1;ratioP1;P2;durP2;ratioP2
18905;SDS011;9585;51.018;4.282;2023-08-01T00:02:23;5.57;;;2.58;;
18905;SDS011;9585;51.018;4.282;2023-08-01T00:04:50;4.05;;;2.40;;
18905;SDS011;9585;51.018;4.282;2023-08-01T00:07:18;4.85;;;2.70;;
18905;SDS011;9585;51.018;4.282;2023-08-01T00:09:46;5.13;;;3.08;;
18905;SDS011;9585;51.018;4.282;2023-08-01T00:12:14;4.68;;;2.65;;
18905;SDS011;9585;51.018;4.282;2023-08-01T00:14:41;5.75;;;3.00;;
18905;SDS011;9585;51.018;4.282;2023-08-01T00:17:12;3.90;;;3.03;;
18905;SDS011;9585;51.018;4.282;2023-08-01T00:19:40;5.30;;;3.30;;
18905;SDS011;9585;51.018;4.282;2023-08-01T00:22:08;8.80;;;3.70;;
18905;SDS011;9585;51.018;4.282;2023-08-01T00:24:36;7.78;;;3.20;;
18905;SDS011;9585;51.018;4.282;2023-08-01T00:27:05;6.90;;;3.40;;
18905;SDS011;9585;51.018;4.282;2023-08-01T00:29:34;4.22;;;3.08;;
18905;SDS011;9585;51.018;4.282;2023-08-01T00:32:02;7.47;;;3.63;;
18905;SDS011;9585;51.018;4.282;2023-08-01T00:34:32;6.38;;;3.55;;
18905;SDS011;9585;51.018;4.282;2023-08-01T00:37:02;5.68;;;3.45;;
18905;SDS011;9585;51.018;4.282;2023-08-01T00:39:31;5.07;;;3.65;;
18905;SDS011;9585;51.018;4.282;2023-08-01T00:41:59;4.18;;;3.30;;
18905;SDS011;9585;51.018;4.282;2023-08-01T00:44:26;4.38;;;3.50;;
18905;SDS011;9585;51.018;4.282;2023-08-01T00:46:54;4.78;;;3.50;;
18905;SDS011;9585;51.018;4.282;2023-08-01T00:49:22;8.65;;;4.50;;
18905;SDS011;9585;51.018;4.282;2023-08-01T00:51:51;4.65;;;3.90;;
18905;SDS011;9585;51.018;4.282;2023-08-01T00:54:20;5.20;;;3.90;;
18905;SDS011;9585;51.018;4.282;2023-08-01T00:56:47;5.85;;;4.13;;
18905;SDS011;9585;51.018;4.282;2023-08-01T00:59:15;8.30;;;3.85;;
18905;SDS011;9585;51.018;4.282;2023-08-01T01:01:42;6.82;;;3.92;;
18905;SDS011;9585;51.018;4.282;2023-08-01T01:04:10;4.68;;;3.75;;
18905;SDS011;9585;51.018;4.282;2023-08-01T01:06:38;5.20;;;3.40;;
18905;SDS011;9585;51.018;4.282;2023-08-01T01:09:16;6.93;;;3.92;;
18905;SDS011;9585;51.018;4.282;2023-08-01T01:11:44;6.38;;;4.32;;
18905;SDS011;9585;51.018;4.282;2023-08-01T01:14:13;5.72;;;3.90;;
18905;SDS011;9585;51.018;4.282;2023-08-01T01:16:40;6.10;;;4.00;;
18905;SDS011;9585;51.018;4.282;2023-08-01T01:19:08;6.68;;;4.30;;
18905;SDS011;9585;51.018;4.282;2023-08-01T01:21:38;5.82;;;3.83;;
18905;SDS011;9585;51.018;4.282;2023-08-01T01:24:08;7.70;;;4.25;;
18905;SDS011;9585;51.018;4.282;2023-08-01T01:26:36;7.40;;;4.20;;
18905;SDS011;9585;51.018;4.282;2023-08-01T01:29:06;8.57;;;4.70;;
18905;SDS011;9585;51.018;4.282;2023-08-01T01:31:34;7.25;;;4.15;;
18905;SDS011;9585;51.018;4.282;2023-08-01T01:34:04;5.68;;;3.95;;
18905;SDS011;9585;51.018;4.282;2023-08-01T01:36:31;7.38;;;4.10;;
18905;SDS011;9585;51.018;4.282;2023-08-01T01:39:02;7.90;;;4.72;;
18905;SDS011;9585;51.018;4.282;2023-08-01T01:41:29;9.75;;;4.40;;
18905;SDS011;9585;51.018;4.282;2023-08-01T01:43:57;11.35;;;5.13;;
18905;SDS011;9585;51.018;4.282;2023-08-01T01:46:25;6.22;;;4.55;;
18905;SDS011;9585;51.018;4.282;2023-08-01T01:48:52;6.90;;;4.57;;
18905;SDS011;9585;51.018;4.282;2023-08-01T01:51:20;7.18;;;4.10;;
18905;SDS011;9585;51.018;4.282;2023-08-01T01:53:48;4.70;;;3.95;;
18905;SDS011;9585;51.018;4.282;2023-08-01T01:56:17;8.88;;;5.10;;
18905;SDS011;9585;51.018;4.282;2023-08-01T01:58:49;6.20;;;4.75;;
18905;SDS011;9585;51.018;4.282;2023-08-01T02:01:17;8.30;;;5.13;;
18905;SDS011;9585;51.018;4.282;2023-08-01T02:03:47;7.68;;;4.68;;
18905;SDS011;9585;51.018;4.282;2023-08-01T02:06:15;6.57;;;4.68;;
18905;SDS011;9585;51.018;4.282;2023-08-01T02:08:43;7.00;;;5.70;;
18905;SDS011;9585;51.018;4.282;2023-08-01T02:11:17;11.60;;;6.00;;
18905;SDS011;9585;51.018;4.282;2023-08-01T02:16:28;8.68;;;5.78;;
18905;SDS011;9585;51.018;4.282;2023-08-01T02:18:55;12.57;;;7.57;;
18905;SDS011;9585;51.018;4.282;2023-08-01T02:21:23;10.73;;;6.70;;
18905;SDS011;9585;51.018;4.282;2023-08-01T02:23:51;10.10;;;7.30;;
18905;SDS011;9585;51.018;4.282;2023-08-01T02:26:22;10.82;;;7.93;;
18905;SDS011;9585;51.018;4.282;2023-08-01T02:28:50;13.68;;;8.82;;
18905;SDS011;9585;51.018;4.282;2023-08-01T02:31:21;13.73;;;9.02;;
18905;SDS011;9585;51.018;4.282;2023-08-01T02:33:49;11.30;;;8.10;;
18905;SDS011;9585;51.018;4.282;2023-08-01T02:36:21;11.65;;;8.82;;
18905;SDS011;9585;51.018;4.282;2023-08-01T02:38:50;9.80;;;8.15;;
18905;SDS011;9585;51.018;4.282;2023-08-01T02:41:22;11.57;;;8.68;;
18905;SDS011;9585;51.018;4.282;2023-08-01T02:43:50;12.68;;;9.13;;
18905;SDS011;9585;51.018;4.282;2023-08-01T02:46:18;11.50;;;8.38;;
18905;SDS011;9585;51.018;4.282;2023-08-01T02:48:46;13.40;;;8.55;;
18905;SDS011;9585;51.018;4.282;2023-08-01T02:51:15;14.20;;;8.30;;
18905;SDS011;9585;51.018;4.282;2023-08-01T02:53:42;14.35;;;8.90;;
18905;SDS011;9585;51.018;4.282;2023-08-01T02:56:10;13.57;;;8.73;;
18905;SDS011;9585;51.018;4.282;2023-08-01T02:58:39;8.50;;;7.20;;
18905;SDS011;9585;51.018;4.282;2023-08-01T03:01:07;11.25;;;7.82;;
18905;SDS011;9585;51.018;4.282;2023-08-01T03:03:35;14.50;;;8.75;;
18905;SDS011;9585;51.018;4.282;2023-08-01T03:06:13;15.57;;;9.30;;
18905;SDS011;9585;51.018;4.282;2023-08-01T03:08:41;12.85;;;9.30;;
18905;SDS011;9585;51.018;4.282;2023-08-01T03:11:08;11.77;;;8.98;;
18905;SDS011;9585;51.018;4.282;2023-08-01T03:13:36;13.05;;;9.30;;
18905;SDS011;9585;51.018;4.282;2023-08-01T03:16:05;13.40;;;9.60;;
18905;SDS011;9585;51.018;4.282;2023-08-01T03:18:32;13.55;;;9.20;;
18905;SDS011;9585;51.018;4.282;2023-08-01T03:21:00;15.55;;;9.93;;
18905;SDS011;9585;51.018;4.282;2023-08-01T03:23:29;14.90;;;9.65;;
18905;SDS011;9585;51.018;4.282;2023-08-01T03:25:57;13.98;;;9.05;;
18905;SDS011;9585;51.018;4.282;2023-08-01T03:28:25;14.43;;;9.05;;
18905;SDS011;9585;51.018;4.282;2023-08-01T03:30:52;15.38;;;9.77;;
18905;SDS011;9585;51.018;4.282;2023-08-01T03:33:25;11.90;;;9.40;;
18905;SDS011;9585;51.018;4.282;2023-08-01T03:35:53;14.02;;;9.50;;
18905;SDS011;9585;51.018;4.282;2023-08-01T03:38:20;21.50;;;10.25;;
18905;SDS011;9585;51.018;4.282;2023-08-01T03:40:55;12.65;;;9.02;;
18905;SDS011;9585;51.018;4.282;2023-08-01T03:43:23;13.82;;;9.88;;
18905;SDS011;9585;51.018;4.282;2023-08-01T03:45:58;14.50;;;9.00;;
18905;SDS011;9585;51.018;4.282;2023-08-01T03:48:35;16.25;;;9.23;;
18905;SDS011;9585;51.018;4.282;2023-08-01T03:51:08;12.18;;;8.68;;
18905;SDS011;9585;51.018;4.282;2023-08-01T03:53:36;15.77;;;8.50;;
18905;SDS011;9585;51.018;4.282;2023-08-01T03:56:10;13.75;;;8.80;;
18905;SDS011;9585;51.018;4.282;2023-08-01T03:58:38;11.90;;;8.00;;
18905;SDS011;9585;51.018;4.282;2023-08-01T04:01:06;14.40;;;7.90;;
18905;SDS011;9585;51.018;4.282;2023-08-01T04:03:36;14.73;;;8.38;;
18905;SDS011;9585;51.018;4.282;2023-08-01T04:06:03;11.32;;;7.80;;
18905;SDS011;9585;51.018;4.282;2023-08-01T04:08:32;11.95;;;7.85;;
18905;SDS011;9585;51.018;4.282;2023-08-01T04:11:03;14.18;;;7.80;;
18905;SDS011;9585;51.018;4.282;2023-08-01T04:13:31;11.95;;;7.57;;
18905;SDS011;9585;51.018;4.282;2023-08-01T04:15:59;13.38;;;7.43;;
18905;SDS011;9585;51.018;4.282;2023-08-01T04:18:26;13.60;;;8.18;;
18905;SDS011;9585;51.018;4.282;2023-08-01T04:20:56;12.20;;;7.55;;
18905;SDS011;9585;51.018;4.282;2023-08-01T04:23:24;11.70;;;7.45;;
18905;SDS011;9585;51.018;4.282;2023-08-01T04:26:00;14.10;;;7.35;;
18905;SDS011;9585;51.018;4.282;2023-08-01T04:28:31;11.20;;;6.90;;
18905;SDS011;9585;51.018;4.282;2023-08-01T04:31:00;12.32;;;7.60;;
18905;SDS011;9585;51.018;4.282;2023-08-01T04:33:33;12.32;;;7.75;;
18905;SDS011;9585;51.018;4.282;2023-08-01T04:38:48;12.63;;;7.55;;
18905;SDS011;9585;51.018;4.282;2023-08-01T04:41:19;11.80;;;6.82;;
18905;SDS011;9585;51.018;4.282;2023-08-01T04:43:55;14.40;;;6.63;;
18905;SDS011;9585;51.018;4.282;2023-08-01T04:46:38;11.50;;;7.03;;
18905;SDS011;9585;51.018;4.282;2023-08-01T04:49:12;11.95;;;7.47;;
18905;SDS011;9585;51.018;4.282;2023-08-01T04:51:41;12.20;;;7.43;;
18905;SDS011;9585;51.018;4.282;2023-08-01T04:54:12;13.82;;;6.85;;
18905;SDS011;9585;51.018;4.282;2023-08-01T04:56:44;12.15;;;6.85;;
18905;SDS011;9585;51.018;4.282;2023-08-01T04:59:12;12.20;;;6.78;;
18905;SDS011;9585;51.018;4.282;2023-08-01T05:01:40;11.85;;;6.90;;
18905;SDS011;9585;51.018;4.282;2023-08-01T05:04:10;10.90;;;6.78;;
18905;SDS011;9585;51.018;4.282;2023-08-01T05:06:45;11.32;;;7.00;;
18905;SDS011;9585;51.018;4.282;2023-08-01T05:09:15;13.77;;;7.00;;
18905;SDS011;9585;51.018;4.282;2023-08-01T05:11:42;10.98;;;6.25;;
18905;SDS011;9585;51.018;4.282;2023-08-01T05:14:29;10.70;;;6.45;;
18905;SDS011;9585;51.018;4.282;2023-08-01T05:16:57;11.80;;;6.78;;
18905;SDS011;9585;51.018;4.282;2023-08-01T05:19:32;12.75;;;6.40;;
18905;SDS011;9585;51.018;4.282;2023-08-01T05:22:02;11.75;;;6.70;;
18905;SDS011;9585;51.018;4.282;2023-08-01T05:24:30;13.38;;;6.50;;
18905;SDS011;9585;51.018;4.282;2023-08-01T05:26:59;11.43;;;6.47;;
18905;SDS011;9585;51.018;4.282;2023-08-01T05:29:27;10.98;;;6.35;;
18905;SDS011;9585;51.018;4.282;2023-08-01T05:31:56;11.00;;;5.97;;
18905;SDS011;9585;51.018;4.282;2023-08-01T05:34:26;9.23;;;6.22;;
18905;SDS011;9585;51.018;4.282;2023-08-01T05:36:54;11.75;;;6.38;;
18905;SDS011;9585;51.018;4.282;2023-08-01T05:39:24;11.27;;;6.70;;
18905;SDS011;9585;51.018;4.282;2023-08-01T05:41:52;12.18;;;6.60;;
18905;SDS011;9585;51.018;4.282;2023-08-01T05:44:20;10.70;;;6.78;;
18905;SDS011;9585;51.018;4.282;2023-08-01T05:46:49;10.88;;;6.47;;
18905;SDS011;9585;51.018;4.282;2023-08-01T05:49:19;12.05;;;6.82;;
18905;SDS011;9585;51.018;4.282;2023-08-01T05:51:47;10.68;;;6.63;;
18905;SDS011;9585;51.018;4.282;2023-08-01T05:54:28;11.75;;;6.40;;
18905;SDS011;9585;51.018;4.282;2023-08-01T05:57:09;10.40;;;6.32;;
18905;SDS011;9585;51.018;4.282;2023-08-01T05:59:44;11.38;;;6.18;;
18905;SDS011;9585;51.018;4.282;2023-08-01T06:02:21;12.93;;;6.43;;
18905;SDS011;9585;51.018;4.282;2023-08-01T06:04:49;11.18;;;6.60;;
18905;SDS011;9585;51.018;4.282;2023-08-01T06:07:20;12.25;;;6.80;;
18905;SDS011;9585;51.018;4.282;2023-08-01T06:09:50;11.80;;;6.35;;
18905;SDS011;9585;51.018;4.282;2023-08-01T06:12:18;13.65;;;6.72;;
18905;SDS011;9585;51.018;4.282;2023-08-01T06:14:47;13.77;;;6.70;;
18905;SDS011;9585;51.018;4.282;2023-08-01T06:17:15;8.52;;;6.28;;
18905;SDS011;9585;51.018;4.282;2023-08-01T06:19:43;12.55;;;6.45;;
18905;SDS011;9585;51.018;4.282;2023-08-01T06:22:10;11.57;;;6.45;;
18905;SDS011;9585;51.018;4.282;2023-08-01T06:24:41;12.98;;;7.07;;
18905;SDS011;9585;51.018;4.282;2023-08-01T06:27:19;8.65;;;6.38;;
18905;SDS011;9585;51.018;4.282;2023-08-01T06:29:53;8.32;;;6.60;;
18905;SDS011;9585;51.018;4.282;2023-08-01T06:32:23;12.68;;;7.10;;
18905;SDS011;9585;51.018;4.282;2023-08-01T06:34:51;9.93;;;6.38;;
18905;SDS011;9585;51.018;4.282;2023-08-01T06:37:23;11.35;;;6.80;;
18905;SDS011;9585;51.018;4.282;2023-08-01T06:39:51;9.80;;;6.57;;
18905;SDS011;9585;51.018;4.282;2023-08-01T06:42:21;10.43;;;5.88;;
18905;SDS011;9585;51.018;4.282;2023-08-01T06:44:49;8.38;;;5.53;;
18905;SDS011;9585;51.018;4.282;2023-08-01T06:47:19;10.93;;;5.40;;
18905;SDS011;9585;51.018;4.282;2023-08-01T06:49:50;11.48;;;5.55;;
18905;SDS011;9585;51.018;4.282;2023-08-01T06:52:22;8.68;;;5.80;;
18905;SDS011;9585;51.018;4.282;2023-08-01T06:54:52;7.82;;;4.68;;
18905;SDS011;9585;51.018;4.282;2023-08-01T06:57:21;7.70;;;3.97;;
18905;SDS011;9585;51.018;4.282;2023-08-01T06:59:51;8.20;;;3.65;;
18905;SDS011;9585;51.018;4.282;2023-08-01T07:02:24;9.57;;;3.90;;
18905;SDS011;9585;51.018;4.282;2023-08-01T07:04:52;7.78;;;4.03;;
18905;SDS011;9585;51.018;4.282;2023-08-01T07:07:23;7.95;;;3.58;;
18905;SDS011;9585;51.018;4.282;2023-08-01T07:09:51;7.22;;;3.35;;
18905;SDS011;9585;51.018;4.282;2023-08-01T07:12:21;6.40;;;3.90;;
18905;SDS011;9585;51.018;4.282;2023-08-01T07:14:52;6.38;;;3.58;;
18905;SDS011;9585;51.018;4.282;2023-08-01T07:17:20;4.95;;;3.65;;
18905;SDS011;9585;51.018;4.282;2023-08-01T07:19:48;6.93;;;3.50;;
18905;SDS011;9585;51.018;4.282;2023-08-01T07:22:19;6.47;;;3.53;;
18905;SDS011;9585;51.018;4.282;2023-08-01T07:24:52;8.25;;;3.78;;
18905;SDS011;9585;51.018;4.282;2023-08-01T07:27:22;8.85;;;4.13;;
18905;SDS011;9585;51.018;4.282;2023-08-01T07:29:51;8.88;;;4.22;;
18905;SDS011;9585;51.018;4.282;2023-08-01T07:32:19;7.07;;;4.03;;
18905;SDS011;9585;51.018;4.282;2023-08-01T07:34:47;8.95;;;4.22;;
18905;SDS011;9585;51.018;4.282;2023-08-01T07:37:15;6.97;;;4.30;;
18905;SDS011;9585;51.018;4.282;2023-08-01T07:39:43;12.10;;;4.07;;
18905;SDS011;9585;51.018;4.282;2023-08-01T07:42:11;7.32;;;3.92;;
18905;SDS011;9585;51.018;4.282;2023-08-01T07:44:41;6.50;;;4.07;;
18905;SDS011;9585;51.018;4.282;2023-08-01T07:47:12;8.65;;;3.80;;
18905;SDS011;9585;51.018;4.282;2023-08-01T07:49:40;6.45;;;3.90;;
18905;SDS011;9585;51.018;4.282;2023-08-01T07:52:11;9.90;;;4.35;;
18905;SDS011;9585;51.018;4.282;2023-08-01T07:54:41;8.40;;;4.45;;
18905;SDS011;9585;51.018;4.282;2023-08-01T07:57:11;7.47;;;3.97;;
18905;SDS011;9585;51.018;4.282;2023-08-01T07:59:42;8.32;;;3.83;;
18905;SDS011;9585;51.018;4.282;2023-08-01T08:02:10;8.23;;;3.83;;
18905;SDS011;9585;51.018;4.282;2023-08-01T08:04:38;6.43;;;3.40;;
18905;SDS011;9585;51.018;4.282;2023-08-01T08:07:09;5.72;;;3.97;;
18905;SDS011;9585;51.018;4.282;2023-08-01T08:09:37;8.45;;;3.33;;
18905;SDS011;9585;51.018;4.282;2023-08-01T08:12:05;8.57;;;3.75;;
18905;SDS011;9585;51.018;4.282;2023-08-01T08:14:33;7.18;;;3.03;;
18905;SDS011;9585;51.018;4.282;2023-08-01T08:17:03;5.72;;;3.03;;
18905;SDS011;9585;51.018;4.282;2023-08-01T08:19:31;6.43;;;3.05;;
18905;SDS011;9585;51.018;4.282;2023-08-01T08:22:02;5.88;;;3.35;;
18905;SDS011;9585;51.018;4.282;2023-08-01T08:24:30;4.15;;;2.85;;
18905;SDS011;9585;51.018;4.282;2023-08-01T08:26:58;6.70;;;3.20;;
18905;SDS011;9585;51.018;4.282;2023-08-01T08:29:32;6.88;;;3.40;;
18905;SDS011;9585;51.018;4.282;2023-08-01T08:32:10;5.43;;;3.08;;
18905;SDS011;9585;51.018;4.282;2023-08-01T08:34:38;5.45;;;3.05;;
18905;SDS011;9585;51.018;4.282;2023-08-01T08:37:06;5.63;;;3.28;;
18905;SDS011;9585;51.018;4.282;2023-08-01T08:39:34;4.45;;;2.78;;
18905;SDS011;9585;51.018;4.282;2023-08-01T08:42:02;6.40;;;2.85;;
18905;SDS011;9585;51.018;4.282;2023-08-01T08:44:30;5.10;;;2.63;;
18905;SDS011;9585;51.018;4.282;2023-08-01T08:47:02;5.53;;;2.45;;
18905;SDS011;9585;51.018;4.282;2023-08-01T08:49:33;5.18;;;2.67;;
18905;SDS011;9585;51.018;4.282;2023-08-01T08:52:05;4.68;;;2.45;;
18905;SDS011;9585;51.018;4.282;2023-08-01T08:54:36;5.78;;;2.30;;
18905;SDS011;9585;51.018;4.282;2023-08-01T08:57:10;5.70;;;2.38;;
18905;SDS011;9585;51.018;4.282;2023-08-01T08:59:39;4.82;;;2.65;;
18905;SDS011;9585;51.018;4.282;2023-08-01T09:02:09;3.20;;;2.50;;
18905;SDS011;9585;51.018;4.282;2023-08-01T09:04:37;4.03;;;2.47;;
18905;SDS011;9585;51.018;4.282;2023-08-01T09:07:07;4.65;;;2.28;;
18905;SDS011;9585;51.018;4.282;2023-08-01T09:09:36;5.20;;;2.60;;
18905;SDS011;9585;51.018;4.282;2023-08-01T09:12:05;5.03;;;3.00;;
18905;SDS011;9585;51.018;4.282;2023-08-01T09:14:37;4.13;;;2.78;;
18905;SDS011;9585;51.018;4.282;2023-08-01T09:17:05;4.25;;;3.20;;
18905;SDS011;9585;51.018;4.282;2023-08-01T09:19:36;4.20;;;2.67;;
18905;SDS011;9585;51.018;4.282;2023-08-01T09:22:09;6.78;;;3.17;;
18905;SDS011;9585;51.018;4.282;2023-08-01T09:24:38;4.72;;;3.35;;
18905;SDS011;9585;51.018;4.282;2023-08-01T09:27:07;4.97;;;3.15;;
18905;SDS011;9585;51.018;4.282;2023-08-01T09:29:43;6.03;;;3.30;;
18905;SDS011;9585;51.018;4.282;2023-08-01T09:32:16;5.70;;;3.45;;
18905;SDS011;9585;51.018;4.282;2023-08-01T09:34:57;5.95;;;3.40;;
18905;SDS011;9585;51.018;4.282;2023-08-01T09:37:27;6.45;;;3.25;;
18905;SDS011;9585;51.018;4.282;2023-08-01T09:40:07;5.65;;;3.63;;
18905;SDS011;9585;51.018;4.282;2023-08-01T09:42:41;4.70;;;3.40;;
18905;SDS011;9585;51.018;4.282;2023-08-01T09:45:12;6.20;;;3.25;;
18905;SDS011;9585;51.018;4.282;2023-08-01T09:47:44;5.80;;;2.90;;
18905;SDS011;9585;51.018;4.282;2023-08-01T09:50:20;4.25;;;3.00;;
18905;SDS011;9585;51.018;4.282;2023-08-01T09:52:49;5.68;;;3.28;;
18905;SDS011;9585;51.018;4.282;2023-08-01T09:55:18;4.97;;;3.30;;
18905;SDS011;9585;51.018;4.282;2023-08-01T09:57:53;5.45;;;3.13;;
18905;SDS011;9585;51.018;4.282;2023-08-01T10:00:25;7.15;;;3.47;;
18905;SDS011;9585;51.018;4.282;2023-08-01T10:02:57;4.22;;;2.45;;
18905;SDS011;9585;51.018;4.282;2023-08-01T10:05:29;5.65;;;3.00;;
18905;SDS011;9585;51.018;4.282;2023-08-01T10:07:59;4.40;;;2.80;;
18905;SDS011;9585;51.018;4.282;2023-08-01T10:10:29;4.35;;;2.65;;
18905;SDS011;9585;51.018;4.282;2023-08-01T10:12:57;5.10;;;2.72;;
18905;SDS011;9585;51.018;4.282;2023-08-01T10:15:27;6.93;;;2.70;;
18905;SDS011;9585;51.018;4.282;2023-08-01T10:17:57;4.78;;;2.20;;
18905;SDS011;9585;51.018;4.282;2023-08-01T10:20:26;4.88;;;2.55;;
18905;SDS011;9585;51.018;4.282;2023-08-01T10:22:57;5.20;;;2.70;;
18905;SDS011;9585;51.018;4.282;2023-08-01T10:25:26;6.63;;;3.00;;
18905;SDS011;9585;51.018;4.282;2023-08-01T10:27:58;5.68;;;2.60;;
18905;SDS011;9585;51.018;4.282;2023-08-01T10:30:29;5.25;;;2.40;;
18905;SDS011;9585;51.018;4.282;2023-08-01T10:32:58;5.35;;;2.90;;
18905;SDS011;9585;51.018;4.282;2023-08-01T10:35:35;4.65;;;2.33;;
18905;SDS011;9585;51.018;4.282;2023-08-01T10:38:04;5.60;;;2.55;;
18905;SDS011;9585;51.018;4.282;2023-08-01T10:40:34;5.35;;;2.50;;
18905;SDS011;9585;51.018;4.282;2023-08-01T10:43:02;5.88;;;2.60;;
18905;SDS011;9585;51.018;4.282;2023-08-01T10:45:31;7.75;;;2.58;;
18905;SDS011;9585;51.018;4.282;2023-08-01T10:48:08;4.65;;;2.60;;
18905;SDS011;9585;51.018;4.282;2023-08-01T10:50:41;6.28;;;2.47;;
18905;SDS011;9585;51.018;4.282;2023-08-01T10:53:09;6.25;;;2.40;;
18905;SDS011;9585;51.018;4.282;2023-08-01T10:55:41;5.65;;;2.47;;
18905;SDS011;9585;51.018;4.282;2023-08-01T10:58:09;4.15;;;2.63;;
18905;SDS011;9585;51.018;4.282;2023-08-01T11:00:37;5.93;;;2.78;;
18905;SDS011;9585;51.018;4.282;2023-08-01T11:03:08;5.85;;;2.40;;
18905;SDS011;9585;51.018;4.282;2023-08-01T11:05:36;4.97;;;2.33;;
18905;SDS011;9585;51.018;4.282;2023-08-01T11:08:06;4.95;;;2.38;;
18905;SDS011;9585;51.018;4.282;2023-08-01T11:10:34;3.38;;;2.00;;
18905;SDS011;9585;51.018;4.282;2023-08-01T11:13:02;6.95;;;2.28;;
18905;SDS011;9585;51.018;4.282;2023-08-01T11:15:30;3.97;;;2.10;;
18905;SDS011;9585;51.018;4.282;2023-08-01T11:17:58;4.38;;;2.03;;
18905;SDS011;9585;51.018;4.282;2023-08-01T11:20:25;4.05;;;2.05;;
18905;SDS011;9585;51.018;4.282;2023-08-01T11:23:02;4.45;;;2.15;;
18905;SDS011;9585;51.018;4.282;2023-08-01T11:25:35;5.38;;;2.20;;
18905;SDS011;9585;51.018;4.282;2023-08-01T11:28:08;5.10;;;2.40;;
18905;SDS011;9585;51.018;4.282;2023-08-01T11:30:36;4.20;;;2.25;;
18905;SDS011;9585;51.018;4.282;2023-08-01T11:33:13;4.85;;;2.22;;
18905;SDS011;9585;51.018;4.282;2023-08-01T11:35:42;5.78;;;2.17;;
18905;SDS011;9585;51.018;4.282;2023-08-01T11:38:10;5.93;;;2.45;;
18905;SDS011;9585;51.018;4.282;2023-08-01T11:40:39;5.18;;;2.20;;
18905;SDS011;9585;51.018;4.282;2023-08-01T11:43:08;5.72;;;2.20;;
18905;SDS011;9585;51.018;4.282;2023-08-01T11:45:36;6.18;;;2.30;;
18905;SDS011;9585;51.018;4.282;2023-08-01T11:48:06;4.05;;;1.80;;
18905;SDS011;9585;51.018;4.282;2023-08-01T11:50:34;4.18;;;1.55;;
18905;SDS011;9585;51.018;4.282;2023-08-01T11:53:02;3.13;;;1.50;;
18905;SDS011;9585;51.018;4.282;2023-08-01T11:55:28;3.45;;;1.67;;
18905;SDS011;9585;51.018;4.282;2023-08-01T11:57:57;5.72;;;1.77;;
18905;SDS011;9585;51.018;4.282;2023-08-01T12:00:26;3.88;;;1.60;;
18905;SDS011;9585;51.018;4.282;2023-08-01T12:03:04;3.55;;;1.80;;
18905;SDS011;9585;51.018;4.282;2023-08-01T12:05:33;6.22;;;1.95;;
18905;SDS011;9585;51.018;4.282;2023-08-01T12:08:12;4.28;;;1.42;;
18905;SDS011;9585;51.018;4.282;2023-08-01T12:10:43;3.90;;;1.55;;
18905;SDS011;9585;51.018;4.282;2023-08-01T12:15:58;3.30;;;1.50;;
18905;SDS011;9585;51.018;4.282;2023-08-01T12:18:26;2.70;;;1.25;;
18905;SDS011;9585;51.018;4.282;2023-08-01T12:20:55;3.40;;;1.40;;
18905;SDS011;9585;51.018;4.282;2023-08-01T12:23:23;3.30;;;1.33;;
18905;SDS011;9585;51.018;4.282;2023-08-01T12:25:51;2.78;;;1.20;;
18905;SDS011;9585;51.018;4.282;2023-08-01T12:28:22;2.90;;;1.27;;
18905;SDS011;9585;51.018;4.282;2023-08-01T12:30:52;1.80;;;1.10;;
18905;SDS011;9585;51.018;4.282;2023-08-01T12:33:20;2.53;;;1.10;;
18905;SDS011;9585;51.018;4.282;2023-08-01T12:35:52;3.58;;;1.30;;
18905;SDS011;9585;51.018;4.282;2023-08-01T12:38:19;2.90;;;1.05;;
18905;SDS011;9585;51.018;4.282;2023-08-01T12:40:50;4.07;;;1.23;;
18905;SDS011;9585;51.018;4.282;2023-08-01T12:43:18;2.97;;;1.02;;
18905;SDS011;9585;51.018;4.282;2023-08-01T12:45:46;3.97;;;1.23;;
18905;SDS011;9585;51.018;4.282;2023-08-01T12:48:16;4.00;;;1.27;;
18905;SDS011;9585;51.018;4.282;2023-08-01T12:50:44;2.88;;;1.10;;
18905;SDS011;9585;51.018;4.282;2023-08-01T12:53:12;3.22;;;1.08;;
18905;SDS011;9585;51.018;4.282;2023-08-01T12:55:42;2.53;;;1.40;;
18905;SDS011;9585;51.018;4.282;2023-08-01T12:58:10;2.47;;;1.30;;
18905;SDS011;9585;51.018;4.282;2023-08-01T13:00:38;3.50;;;0.98;;
18905;SDS011;9585;51.018;4.282;2023-08-01T13:03:07;3.13;;;1.20;;
18905;SDS011;9585;51.018;4.282;2023-08-01T13:05:38;3.00;;;1.30;;
18905;SDS011;9585;51.018;4.282;2023-08-01T13:08:08;2.10;;;1.30;;
18905;SDS011;9585;51.018;4.282;2023-08-01T13:10:36;2.38;;;1.27;;
18905;SDS011;9585;51.018;4.282;2023-08-01T13:13:10;2.47;;;1.20;;
18905;SDS011;9585;51.018;4.282;2023-08-01T13:15:38;3.10;;;1.30;;
18905;SDS011;9585;51.018;4.282;2023-08-01T13:18:06;3.75;;;1.40;;
18905;SDS011;9585;51.018;4.282;2023-08-01T13:20:34;4.68;;;1.60;;
18905;SDS011;9585;51.018;4.282;2023-08-01T13:23:04;2.45;;;1.27;;
18905;SDS011;9585;51.018;4.282;2023-08-01T13:25:32;3.42;;;1.60;;
18905;SDS011;9585;51.018;4.282;2023-08-01T13:27:59;2.15;;;1.20;;
18905;SDS011;9585;51.018;4.282;2023-08-01T13:30:30;3.20;;;1.52;;
18905;SDS011;9585;51.018;4.282;2023-08-01T13:32:58;3.83;;;1.50;;
18905;SDS011;9585;51.018;4.282;2023-08-01T13:35:26;3.90;;;1.38;;
18905;SDS011;9585;51.018;4.282;2023-08-01T13:37:54;3.95;;;1.70;;
18905;SDS011;9585;51.018;4.282;2023-08-01T13:40:24;4.10;;;1.08;;
18905;SDS011;9585;51.018;4.282;2023-08-01T13:42:55;2.92;;;1.23;;
18905;SDS011;9585;51.018;4.282;2023-08-01T13:45:22;3.45;;;1.20;;
18905;SDS011;9585;51.018;4.282;2023-08-01T13:47:53;2.95;;;1.35;;
18905;SDS011;9585;51.018;4.282;2023-08-01T13:50:21;3.78;;;1.67;;
18905;SDS011;9585;51.018;4.282;2023-08-01T13:52:49;6.85;;;1.77;;
18905;SDS011;9585;51.018;4.282;2023-08-01T13:55:17;3.15;;;1.40;;
18905;SDS011;9585;51.018;4.282;2023-08-01T13:57:46;6.03;;;1.55;;
18905;SDS011;9585;51.018;4.282;2023-08-01T14:00:14;4.40;;;1.70;;
18905;SDS011;9585;51.018;4.282;2023-08-01T14:02:46;3.55;;;1.65;;
18905;SDS011;9585;51.018;4.282;2023-08-01T14:05:17;5.13;;;1.77;;
18905;SDS011;9585;51.018;4.282;2023-08-01T14:07:45;5.95;;;1.90;;
18905;SDS011;9585;51.018;4.282;2023-08-01T14:10:13;5.47;;;1.60;;
18905;SDS011;9585;51.018;4.282;2023-08-01T14:12:41;5.20;;;1.42;;
18905;SDS011;9585;51.018;4.282;2023-08-01T14:15:11;4.30;;;1.30;;
18905;SDS011;9585;51.018;4.282;2023-08-01T14:17:38;4.18;;;1.40;;
18905;SDS011;9585;51.018;4.282;2023-08-01T14:20:07;6.82;;;2.00;;
18905;SDS011;9585;51.018;4.282;2023-08-01T14:22:35;3.97;;;1.38;;
18905;SDS011;9585;51.018;4.282;2023-08-01T14:25:03;3.72;;;1.48;;
18905;SDS011;9585;51.018;4.282;2023-08-01T14:27:34;7.72;;;1.67;;
18905;SDS011;9585;51.018;4.282;2023-08-01T14:30:03;3.72;;;1.70;;
18905;SDS011;9585;51.018;4.282;2023-08-01T14:32:37;3.08;;;1.35;;
18905;SDS011;9585;51.018;4.282;2023-08-01T14:35:06;3.30;;;1.63;;
18905;SDS011;9585;51.018;4.282;2023-08-01T14:37:37;4.00;;;1.20;;
18905;SDS011;9585;51.018;4.282;2023-08-01T14:40:08;3.15;;;1.33;;
18905;SDS011;9585;51.018;4.282;2023-08-01T14:42:36;4.15;;;1.40;;
18905;SDS011;9585;51.018;4.282;2023-08-01T14:45:04;5.78;;;1.30;;
18905;SDS011;9585;51.018;4.282;2023-08-01T14:47:34;4.55;;;1.30;;
18905;SDS011;9585;51.018;4.282;2023-08-01T14:50:03;3.20;;;1.38;;
18905;SDS011;9585;51.018;4.282;2023-08-01T14:52:34;5.32;;;1.52;;
18905;SDS011;9585;51.018;4.282;2023-08-01T14:55:02;3.90;;;1.45;;
18905;SDS011;9585;51.018;4.282;2023-08-01T14:57:31;4.70;;;1.50;;
18905;SDS011;9585;51.018;4.282;2023-08-01T15:00:00;3.78;;;1.60;;
18905;SDS011;9585;51.018;4.282;2023-08-01T15:02:28;5.93;;;1.40;;
18905;SDS011;9585;51.018;4.282;2023-08-01T15:04:58;3.83;;;1.30;;
18905;SDS011;9585;51.018;4.282;2023-08-01T15:07:27;5.32;;;1.70;;
18905;SDS011;9585;51.018;4.282;2023-08-01T15:09:55;5.95;;;1.65;;
18905;SDS011;9585;51.018;4.282;2023-08-01T15:12:24;2.75;;;1.23;;
18905;SDS011;9585;51.018;4.282;2023-08-01T15:14:51;2.55;;;1.35;;
18905;SDS011;9585;51.018;4.282;2023-08-01T15:17:23;4.25;;;1.25;;
18905;SDS011;9585;51.018;4.282;2023-08-01T15:19:56;5.25;;;1.60;;
18905;SDS011;9585;51.018;4.282;2023-08-01T15:22:26;3.80;;;1.45;;